Estación municipal de Seva (Osona, P.N. del Montseny)

Consulta los datos en tiempo real de la estación municipal de Seva





Hora UTC 02:35
Temperatura 18.6 ºC
Suelo 15 cm 16.9 ºC
Humedad 93.8 %
Presión 1024.9 hPa
Pluja 0.0 mm
Velocidad viento 2.5 km/h
Dirección viento E
Radiación solar 0.1 W/m²

Webcam

Datos diarios 2026-09-04



Hora UTC (invierno +1h; verano +2h)
Temperatura (ºC) Humedad (%) Presión (hPa) Velocidad viento (km/h) Precipitación (mm) Radiación solar (W/m²)
Hora UTC Aire Suelo 15 cm Humedad Presión Vel. Dir. Vel. Max Dir. Intent. máx 5 min. Rad. Sol.
00:05 20.1 18.3 88.7 1025.7 1.0 ESE 1.0 E 0.0 0.1
00:10 19.9 18.3 88.7 1025.7 2.3 ESE 3.5 ESE 0.0 0.1
00:15 19.8 18.2 88.8 1025.7 0.5 ESE 2.1 ESE 0.0 0.1
00:20 19.8 18.1 88.8 1025.6 0.1 SE 1.4 SE 0.0 0.1
00:25 19.7 18.0 88.9 1025.6 1.2 S 2.1 SSE 0.0 0.1
00:30 19.7 17.9 89.5 1025.6 1.4 SSE 2.5 SE 0.0 0.1
00:35 19.5 17.9 89.7 1025.6 2.2 E 3.9 ENE 0.0 0.0
00:40 19.5 17.9 90.5 1025.5 4.8 ENE 5.6 ENE 0.0 0.0
00:45 19.4 17.8 90.1 1025.5 3.4 E 4.2 E 0.0 0.1
00:50 19.4 17.8 90.6 1025.5 2.1 E 2.8 E 0.0 0.0
00:55 19.4 17.8 90.8 1025.5 2.1 E 3.2 E 0.0 0.1
01:00 19.4 17.7 90.3 1025.4 2.6 E 3.5 E 0.0 0.0
01:05 19.3 17.7 90.5 1025.4 2.6 E 3.5 ENE 0.0 0.0
01:10 19.3 17.7 90.8 1025.3 2.6 E 3.5 E 0.0 0.1
01:15 19.2 17.6 91.0 1025.3 2.6 ESE 3.5 ENE 0.0 0.1
01:20 19.4 17.6 91.9 1025.2 2.6 E 3.2 ENE 0.0 0.0
01:25 19.3 17.5 91.2 1025.2 2.2 E 2.8 ENE 0.0 0.1
01:30 19.3 17.6 91.2 1025.2 2.4 E 3.2 E 0.0 0.1
01:35 19.2 17.5 91.4 1025.1 3.5 ENE 4.6 E 0.0 0.1
01:40 19.2 17.5 91.6 1025.1 3.0 E 4.2 ENE 0.0 0.0
01:45 19.1 17.5 91.9 1025.1 0.9 E 2.5 E 0.0 0.0
01:50 19.1 17.4 91.8 1025.1 0.0 ESE 1.1 ESE 0.0 0.1
01:55 19.1 17.4 92.3 1025.1 0.0 NNE 0.0 SE 0.0 0.0
02:00 19.1 17.3 92.2 1025.0 0.0 NNE 0.0 SSW 0.0 0.0
02:05 18.9 17.2 92.3 1025.0 0.0 NNE 0.0 S 0.0 0.1
02:10 18.9 17.1 92.7 1025.0 0.4 ENE 1.8 NE 0.0 0.1
02:15 18.7 17.0 92.8 1025.0 0.1 NE 1.4 NE 0.0 0.1
02:20 18.7 17.0 93.4 1025.0 2.7 ENE 4.6 ENE 0.0 0.1
02:25 18.6 16.9 93.3 1025.0 2.5 E 3.9 ENE 0.0 0.0
02:30 18.7 16.9 93.8 1024.9 3.2 ENE 4.2 E 0.0 0.1
02:35 18.6 16.9 93.8 1024.9 2.5 E 3.5 ENE 0.0 0.1
Máxima 20.1 18.3 93.8 1025.7 4.8 ENE 5.6 ENE 0.0 0.1
Mínima 18.6 16.9 88.7 1024.9
Total 0.0